sensor_id;sensor_type;location;lat;lon;timestamp;P1;durP1;ratioP1;P2;durP2;ratioP2
60318;SDS011;46163;52.306;5.634;2023-05-07T00:00:24;1.10;;;1.10;;
60318;SDS011;46163;52.306;5.634;2023-05-07T00:02:49;1.20;;;1.20;;
60318;SDS011;46163;52.306;5.634;2023-05-07T00:05:15;0.98;;;0.95;;
60318;SDS011;46163;52.306;5.634;2023-05-07T00:07:41;1.55;;;1.20;;
60318;SDS011;46163;52.306;5.634;2023-05-07T00:10:06;1.83;;;1.30;;
60318;SDS011;46163;52.306;5.634;2023-05-07T00:12:32;1.65;;;1.30;;
60318;SDS011;46163;52.306;5.634;2023-05-07T00:15:02;1.38;;;1.13;;
60318;SDS011;46163;52.306;5.634;2023-05-07T00:17:29;1.35;;;1.25;;
60318;SDS011;46163;52.306;5.634;2023-05-07T00:19:54;1.10;;;1.10;;
60318;SDS011;46163;52.306;5.634;2023-05-07T00:22:20;1.05;;;1.05;;
60318;SDS011;46163;52.306;5.634;2023-05-07T00:24:46;1.55;;;1.25;;
60318;SDS011;46163;52.306;5.634;2023-05-07T00:27:12;1.20;;;1.10;;
60318;SDS011;46163;52.306;5.634;2023-05-07T00:29:37;1.30;;;1.20;;
60318;SDS011;46163;52.306;5.634;2023-05-07T00:32:04;1.10;;;1.10;;
60318;SDS011;46163;52.306;5.634;2023-05-07T00:34:30;1.10;;;1.10;;
60318;SDS011;46163;52.306;5.634;2023-05-07T00:36:55;1.50;;;1.20;;
60318;SDS011;46163;52.306;5.634;2023-05-07T00:39:21;1.48;;;1.38;;
60318;SDS011;46163;52.306;5.634;2023-05-07T00:41:46;0.88;;;0.88;;
60318;SDS011;46163;52.306;5.634;2023-05-07T00:44:12;1.17;;;1.13;;
60318;SDS011;46163;52.306;5.634;2023-05-07T00:46:37;1.30;;;1.20;;
60318;SDS011;46163;52.306;5.634;2023-05-07T00:49:03;1.13;;;1.10;;
60318;SDS011;46163;52.306;5.634;2023-05-07T00:51:30;1.10;;;1.10;;
60318;SDS011;46163;52.306;5.634;2023-05-07T00:53:55;1.00;;;1.00;;
60318;SDS011;46163;52.306;5.634;2023-05-07T00:56:21;1.15;;;1.05;;
60318;SDS011;46163;52.306;5.634;2023-05-07T00:58:48;1.58;;;1.05;;
60318;SDS011;46163;52.306;5.634;2023-05-07T01:01:14;1.33;;;1.10;;
60318;SDS011;46163;52.306;5.634;2023-05-07T01:03:43;1.25;;;1.15;;
60318;SDS011;46163;52.306;5.634;2023-05-07T01:06:08;1.23;;;1.17;;
60318;SDS011;46163;52.306;5.634;2023-05-07T01:08:37;1.08;;;1.08;;
60318;SDS011;46163;52.306;5.634;2023-05-07T01:11:05;1.20;;;1.20;;
60318;SDS011;46163;52.306;5.634;2023-05-07T01:13:32;1.02;;;1.00;;
60318;SDS011;46163;52.306;5.634;2023-05-07T01:15:59;1.27;;;1.17;;
60318;SDS011;46163;52.306;5.634;2023-05-07T01:18:25;1.00;;;1.00;;
60318;SDS011;46163;52.306;5.634;2023-05-07T01:20:51;1.08;;;1.08;;
60318;SDS011;46163;52.306;5.634;2023-05-07T01:23:18;1.10;;;1.10;;
60318;SDS011;46163;52.306;5.634;2023-05-07T01:25:50;1.23;;;0.95;;
60318;SDS011;46163;52.306;5.634;2023-05-07T01:28:17;1.10;;;1.00;;
60318;SDS011;46163;52.306;5.634;2023-05-07T01:30:42;1.20;;;1.20;;
60318;SDS011;46163;52.306;5.634;2023-05-07T01:33:13;1.20;;;1.15;;
60318;SDS011;46163;52.306;5.634;2023-05-07T01:35:41;1.98;;;1.10;;
60318;SDS011;46163;52.306;5.634;2023-05-07T01:38:10;1.20;;;1.20;;
60318;SDS011;46163;52.306;5.634;2023-05-07T01:40:37;1.08;;;1.08;;
60318;SDS011;46163;52.306;5.634;2023-05-07T01:43:03;1.00;;;1.00;;
60318;SDS011;46163;52.306;5.634;2023-05-07T01:45:30;1.35;;;1.25;;
60318;SDS011;46163;52.306;5.634;2023-05-07T01:47:57;1.00;;;1.00;;
60318;SDS011;46163;52.306;5.634;2023-05-07T01:50:24;1.17;;;1.08;;
60318;SDS011;46163;52.306;5.634;2023-05-07T01:52:50;1.40;;;1.30;;
60318;SDS011;46163;52.306;5.634;2023-05-07T01:55:17;1.10;;;1.10;;
60318;SDS011;46163;52.306;5.634;2023-05-07T01:57:43;1.20;;;1.10;;
60318;SDS011;46163;52.306;5.634;2023-05-07T02:00:09;1.05;;;1.05;;
60318;SDS011;46163;52.306;5.634;2023-05-07T02:02:37;1.05;;;1.02;;
60318;SDS011;46163;52.306;5.634;2023-05-07T02:05:03;1.02;;;1.02;;
60318;SDS011;46163;52.306;5.634;2023-05-07T02:07:29;0.98;;;0.98;;
60318;SDS011;46163;52.306;5.634;2023-05-07T02:09:55;1.20;;;1.20;;
60318;SDS011;46163;52.306;5.634;2023-05-07T02:12:21;1.17;;;1.13;;
60318;SDS011;46163;52.306;5.634;2023-05-07T02:14:47;1.13;;;1.13;;
60318;SDS011;46163;52.306;5.634;2023-05-07T02:17:13;1.10;;;1.10;;
60318;SDS011;46163;52.306;5.634;2023-05-07T02:19:39;1.52;;;1.38;;
60318;SDS011;46163;52.306;5.634;2023-05-07T02:22:04;0.88;;;0.88;;
60318;SDS011;46163;52.306;5.634;2023-05-07T02:24:30;1.20;;;1.10;;
60318;SDS011;46163;52.306;5.634;2023-05-07T02:26:55;1.65;;;1.00;;
60318;SDS011;46163;52.306;5.634;2023-05-07T02:29:21;1.13;;;1.13;;
60318;SDS011;46163;52.306;5.634;2023-05-07T02:31:46;1.00;;;1.00;;
60318;SDS011;46163;52.306;5.634;2023-05-07T02:34:15;1.20;;;1.10;;
60318;SDS011;46163;52.306;5.634;2023-05-07T02:36:44;0.80;;;0.80;;
60318;SDS011;46163;52.306;5.634;2023-05-07T02:39:11;1.10;;;1.10;;
60318;SDS011;46163;52.306;5.634;2023-05-07T02:41:37;1.95;;;1.15;;
60318;SDS011;46163;52.306;5.634;2023-05-07T02:44:02;1.02;;;1.02;;
60318;SDS011;46163;52.306;5.634;2023-05-07T02:46:28;0.90;;;0.90;;
60318;SDS011;46163;52.306;5.634;2023-05-07T02:48:54;1.00;;;1.00;;
60318;SDS011;46163;52.306;5.634;2023-05-07T02:51:20;1.30;;;1.20;;
60318;SDS011;46163;52.306;5.634;2023-05-07T02:53:46;1.05;;;1.05;;
60318;SDS011;46163;52.306;5.634;2023-05-07T02:56:11;0.80;;;0.80;;
60318;SDS011;46163;52.306;5.634;2023-05-07T02:58:37;0.95;;;0.95;;
60318;SDS011;46163;52.306;5.634;2023-05-07T03:01:04;1.20;;;1.20;;
60318;SDS011;46163;52.306;5.634;2023-05-07T03:03:30;1.10;;;1.10;;
60318;SDS011;46163;52.306;5.634;2023-05-07T03:05:56;1.00;;;1.00;;
60318;SDS011;46163;52.306;5.634;2023-05-07T03:08:21;0.93;;;0.93;;
60318;SDS011;46163;52.306;5.634;2023-05-07T03:10:47;1.10;;;1.10;;
60318;SDS011;46163;52.306;5.634;2023-05-07T03:13:12;1.00;;;1.00;;
60318;SDS011;46163;52.306;5.634;2023-05-07T03:15:38;0.90;;;0.90;;
60318;SDS011;46163;52.306;5.634;2023-05-07T03:18:03;1.00;;;1.00;;
60318;SDS011;46163;52.306;5.634;2023-05-07T03:20:29;0.93;;;0.93;;
60318;SDS011;46163;52.306;5.634;2023-05-07T03:22:55;1.00;;;1.00;;
60318;SDS011;46163;52.306;5.634;2023-05-07T03:25:20;1.33;;;1.23;;
60318;SDS011;46163;52.306;5.634;2023-05-07T03:27:46;0.98;;;0.98;;
60318;SDS011;46163;52.306;5.634;2023-05-07T03:30:11;1.38;;;1.10;;
60318;SDS011;46163;52.306;5.634;2023-05-07T03:32:37;0.82;;;0.82;;
60318;SDS011;46163;52.306;5.634;2023-05-07T03:35:03;1.17;;;1.17;;
60318;SDS011;46163;52.306;5.634;2023-05-07T03:37:29;1.10;;;1.10;;
60318;SDS011;46163;52.306;5.634;2023-05-07T03:39:55;1.05;;;1.05;;
60318;SDS011;46163;52.306;5.634;2023-05-07T03:42:20;1.00;;;1.00;;
60318;SDS011;46163;52.306;5.634;2023-05-07T03:44:46;1.20;;;1.20;;
60318;SDS011;46163;52.306;5.634;2023-05-07T03:47:11;0.90;;;0.90;;
60318;SDS011;46163;52.306;5.634;2023-05-07T03:49:38;1.15;;;1.00;;
60318;SDS011;46163;52.306;5.634;2023-05-07T03:52:04;1.10;;;1.10;;
60318;SDS011;46163;52.306;5.634;2023-05-07T03:54:30;1.15;;;1.10;;
60318;SDS011;46163;52.306;5.634;2023-05-07T03:56:56;1.20;;;1.10;;
60318;SDS011;46163;52.306;5.634;2023-05-07T03:59:21;1.02;;;1.02;;
60318;SDS011;46163;52.306;5.634;2023-05-07T04:01:47;0.82;;;0.82;;
60318;SDS011;46163;52.306;5.634;2023-05-07T04:04:14;1.00;;;0.85;;
60318;SDS011;46163;52.306;5.634;2023-05-07T04:06:40;1.25;;;1.10;;
60318;SDS011;46163;52.306;5.634;2023-05-07T04:09:06;1.00;;;1.00;;
60318;SDS011;46163;52.306;5.634;2023-05-07T04:11:32;1.05;;;1.02;;
60318;SDS011;46163;52.306;5.634;2023-05-07T04:13:57;0.90;;;0.90;;
60318;SDS011;46163;52.306;5.634;2023-05-07T04:16:23;1.30;;;1.20;;
60318;SDS011;46163;52.306;5.634;2023-05-07T04:18:48;1.10;;;1.10;;
60318;SDS011;46163;52.306;5.634;2023-05-07T04:21:15;1.00;;;1.00;;
60318;SDS011;46163;52.306;5.634;2023-05-07T04:23:46;1.10;;;1.00;;
60318;SDS011;46163;52.306;5.634;2023-05-07T04:26:12;1.23;;;1.13;;
60318;SDS011;46163;52.306;5.634;2023-05-07T04:28:38;1.02;;;1.02;;
60318;SDS011;46163;52.306;5.634;2023-05-07T04:31:05;0.80;;;0.80;;
60318;SDS011;46163;52.306;5.634;2023-05-07T04:33:31;1.00;;;1.00;;
60318;SDS011;46163;52.306;5.634;2023-05-07T04:35:58;1.00;;;1.00;;
60318;SDS011;46163;52.306;5.634;2023-05-07T04:38:28;1.00;;;1.00;;
60318;SDS011;46163;52.306;5.634;2023-05-07T04:40:55;0.98;;;0.98;;
60318;SDS011;46163;52.306;5.634;2023-05-07T04:43:21;1.00;;;1.00;;
60318;SDS011;46163;52.306;5.634;2023-05-07T04:45:47;1.10;;;1.10;;
60318;SDS011;46163;52.306;5.634;2023-05-07T04:48:14;1.03;;;1.03;;
60318;SDS011;46163;52.306;5.634;2023-05-07T04:50:41;1.10;;;1.10;;
60318;SDS011;46163;52.306;5.634;2023-05-07T04:53:06;1.00;;;1.00;;
60318;SDS011;46163;52.306;5.634;2023-05-07T04:55:32;1.30;;;1.20;;
60318;SDS011;46163;52.306;5.634;2023-05-07T04:57:57;1.00;;;1.00;;
60318;SDS011;46163;52.306;5.634;2023-05-07T05:00:23;1.00;;;1.00;;
60318;SDS011;46163;52.306;5.634;2023-05-07T05:02:50;1.33;;;1.30;;
60318;SDS011;46163;52.306;5.634;2023-05-07T05:05:15;1.00;;;1.00;;
60318;SDS011;46163;52.306;5.634;2023-05-07T05:07:41;1.10;;;1.10;;
60318;SDS011;46163;52.306;5.634;2023-05-07T05:10:06;1.00;;;1.00;;
60318;SDS011;46163;52.306;5.634;2023-05-07T05:12:32;1.00;;;1.00;;
60318;SDS011;46163;52.306;5.634;2023-05-07T05:14:57;1.08;;;1.08;;
60318;SDS011;46163;52.306;5.634;2023-05-07T05:17:24;1.25;;;1.15;;
60318;SDS011;46163;52.306;5.634;2023-05-07T05:19:49;1.10;;;1.10;;
60318;SDS011;46163;52.306;5.634;2023-05-07T05:22:16;1.15;;;1.15;;
60318;SDS011;46163;52.306;5.634;2023-05-07T05:24:41;1.23;;;1.23;;
60318;SDS011;46163;52.306;5.634;2023-05-07T05:27:06;1.20;;;1.20;;
60318;SDS011;46163;52.306;5.634;2023-05-07T05:29:32;1.10;;;1.10;;
60318;SDS011;46163;52.306;5.634;2023-05-07T05:31:57;1.30;;;1.20;;
60318;SDS011;46163;52.306;5.634;2023-05-07T05:34:23;1.00;;;1.00;;
60318;SDS011;46163;52.306;5.634;2023-05-07T05:36:49;1.13;;;1.10;;
60318;SDS011;46163;52.306;5.634;2023-05-07T05:39:14;1.33;;;1.23;;
60318;SDS011;46163;52.306;5.634;2023-05-07T05:41:40;1.10;;;1.10;;
60318;SDS011;46163;52.306;5.634;2023-05-07T05:44:06;1.10;;;1.10;;
60318;SDS011;46163;52.306;5.634;2023-05-07T05:46:31;1.20;;;1.20;;
60318;SDS011;46163;52.306;5.634;2023-05-07T05:48:57;1.30;;;1.20;;
60318;SDS011;46163;52.306;5.634;2023-05-07T05:51:22;1.10;;;1.10;;
60318;SDS011;46163;52.306;5.634;2023-05-07T05:53:48;1.05;;;1.05;;
60318;SDS011;46163;52.306;5.634;2023-05-07T05:56:14;1.30;;;1.30;;
60318;SDS011;46163;52.306;5.634;2023-05-07T05:58:41;1.10;;;1.10;;
60318;SDS011;46163;52.306;5.634;2023-05-07T06:01:06;1.20;;;1.20;;
60318;SDS011;46163;52.306;5.634;2023-05-07T06:03:32;1.13;;;1.00;;
60318;SDS011;46163;52.306;5.634;2023-05-07T06:05:58;1.13;;;1.13;;
60318;SDS011;46163;52.306;5.634;2023-05-07T06:08:25;1.00;;;1.00;;
60318;SDS011;46163;52.306;5.634;2023-05-07T06:10:50;1.10;;;1.10;;
60318;SDS011;46163;52.306;5.634;2023-05-07T06:13:16;1.35;;;1.25;;
60318;SDS011;46163;52.306;5.634;2023-05-07T06:15:41;1.10;;;1.10;;
60318;SDS011;46163;52.306;5.634;2023-05-07T06:18:07;1.27;;;1.25;;
60318;SDS011;46163;52.306;5.634;2023-05-07T06:20:32;1.10;;;1.10;;
60318;SDS011;46163;52.306;5.634;2023-05-07T06:22:58;1.27;;;1.27;;
60318;SDS011;46163;52.306;5.634;2023-05-07T06:25:23;1.48;;;1.40;;
60318;SDS011;46163;52.306;5.634;2023-05-07T06:27:49;1.23;;;1.20;;
60318;SDS011;46163;52.306;5.634;2023-05-07T06:30:15;1.10;;;1.10;;
60318;SDS011;46163;52.306;5.634;2023-05-07T06:32:40;1.35;;;1.35;;
60318;SDS011;46163;52.306;5.634;2023-05-07T06:35:06;1.25;;;1.25;;
60318;SDS011;46163;52.306;5.634;2023-05-07T06:37:31;1.27;;;1.27;;
60318;SDS011;46163;52.306;5.634;2023-05-07T06:39:57;1.40;;;1.30;;
60318;SDS011;46163;52.306;5.634;2023-05-07T06:42:23;1.45;;;1.30;;
60318;SDS011;46163;52.306;5.634;2023-05-07T06:44:48;1.48;;;1.38;;
60318;SDS011;46163;52.306;5.634;2023-05-07T06:47:14;1.30;;;1.30;;
60318;SDS011;46163;52.306;5.634;2023-05-07T06:49:39;1.90;;;1.50;;
60318;SDS011;46163;52.306;5.634;2023-05-07T06:52:05;1.00;;;1.00;;
60318;SDS011;46163;52.306;5.634;2023-05-07T06:54:30;1.38;;;1.27;;
60318;SDS011;46163;52.306;5.634;2023-05-07T06:56:56;1.10;;;1.10;;
60318;SDS011;46163;52.306;5.634;2023-05-07T06:59:21;1.23;;;1.20;;
60318;SDS011;46163;52.306;5.634;2023-05-07T07:01:47;1.20;;;1.20;;
60318;SDS011;46163;52.306;5.634;2023-05-07T07:04:13;1.38;;;1.27;;
60318;SDS011;46163;52.306;5.634;2023-05-07T07:06:38;1.20;;;1.20;;
60318;SDS011;46163;52.306;5.634;2023-05-07T07:09:04;1.30;;;1.30;;
60318;SDS011;46163;52.306;5.634;2023-05-07T07:11:30;1.58;;;1.38;;
60318;SDS011;46163;52.306;5.634;2023-05-07T07:13:55;1.40;;;1.30;;
60318;SDS011;46163;52.306;5.634;2023-05-07T07:16:21;1.30;;;1.30;;
60318;SDS011;46163;52.306;5.634;2023-05-07T07:18:47;1.30;;;1.30;;
60318;SDS011;46163;52.306;5.634;2023-05-07T07:21:12;1.30;;;1.30;;
60318;SDS011;46163;52.306;5.634;2023-05-07T07:23:38;1.40;;;1.30;;
60318;SDS011;46163;52.306;5.634;2023-05-07T07:26:03;1.20;;;1.20;;
60318;SDS011;46163;52.306;5.634;2023-05-07T07:28:34;1.70;;;1.60;;
60318;SDS011;46163;52.306;5.634;2023-05-07T07:30:59;1.80;;;1.13;;
60318;SDS011;46163;52.306;5.634;2023-05-07T07:33:25;2.35;;;1.60;;
60318;SDS011;46163;52.306;5.634;2023-05-07T07:35:50;1.50;;;1.40;;
60318;SDS011;46163;52.306;5.634;2023-05-07T07:38:16;1.50;;;1.35;;
60318;SDS011;46163;52.306;5.634;2023-05-07T07:40:41;1.70;;;1.60;;
60318;SDS011;46163;52.306;5.634;2023-05-07T07:43:08;2.40;;;1.40;;
60318;SDS011;46163;52.306;5.634;2023-05-07T07:45:34;2.83;;;1.63;;
60318;SDS011;46163;52.306;5.634;2023-05-07T07:47:59;1.30;;;1.30;;
60318;SDS011;46163;52.306;5.634;2023-05-07T07:50:25;1.58;;;1.48;;
60318;SDS011;46163;52.306;5.634;2023-05-07T07:52:51;1.60;;;1.50;;
60318;SDS011;46163;52.306;5.634;2023-05-07T07:55:19;1.85;;;1.40;;
60318;SDS011;46163;52.306;5.634;2023-05-07T07:57:47;2.13;;;1.70;;
60318;SDS011;46163;52.306;5.634;2023-05-07T08:00:13;1.95;;;1.85;;
60318;SDS011;46163;52.306;5.634;2023-05-07T08:02:40;3.90;;;2.15;;
60318;SDS011;46163;52.306;5.634;2023-05-07T08:05:06;2.92;;;2.00;;
60318;SDS011;46163;52.306;5.634;2023-05-07T08:07:31;4.13;;;2.28;;
60318;SDS011;46163;52.306;5.634;2023-05-07T08:10:00;1.65;;;1.55;;
60318;SDS011;46163;52.306;5.634;2023-05-07T08:12:25;1.90;;;1.80;;
60318;SDS011;46163;52.306;5.634;2023-05-07T08:14:51;3.55;;;2.00;;
60318;SDS011;46163;52.306;5.634;2023-05-07T08:17:16;2.08;;;1.95;;
60318;SDS011;46163;52.306;5.634;2023-05-07T08:19:42;1.85;;;1.73;;
60318;SDS011;46163;52.306;5.634;2023-05-07T08:22:09;3.45;;;2.28;;
60318;SDS011;46163;52.306;5.634;2023-05-07T08:24:35;2.67;;;2.00;;
60318;SDS011;46163;52.306;5.634;2023-05-07T08:27:01;2.80;;;2.05;;
60318;SDS011;46163;52.306;5.634;2023-05-07T08:29:27;2.22;;;2.03;;
60318;SDS011;46163;52.306;5.634;2023-05-07T08:31:52;1.90;;;1.80;;
60318;SDS011;46163;52.306;5.634;2023-05-07T08:34:18;2.17;;;1.98;;
60318;SDS011;46163;52.306;5.634;2023-05-07T08:36:43;2.08;;;1.88;;
60318;SDS011;46163;52.306;5.634;2023-05-07T08:39:11;4.30;;;1.50;;
60318;SDS011;46163;52.306;5.634;2023-05-07T08:41:36;2.20;;;1.58;;
60318;SDS011;46163;52.306;5.634;2023-05-07T08:44:02;1.33;;;1.33;;
60318;SDS011;46163;52.306;5.634;2023-05-07T08:46:31;1.58;;;1.48;;
60318;SDS011;46163;52.306;5.634;2023-05-07T08:48:57;1.70;;;1.60;;
60318;SDS011;46163;52.306;5.634;2023-05-07T08:51:23;1.60;;;1.50;;
60318;SDS011;46163;52.306;5.634;2023-05-07T08:53:49;1.50;;;1.40;;
60318;SDS011;46163;52.306;5.634;2023-05-07T08:56:15;1.52;;;1.42;;
60318;SDS011;46163;52.306;5.634;2023-05-07T08:58:44;1.25;;;1.25;;
60318;SDS011;46163;52.306;5.634;2023-05-07T09:01:13;1.70;;;1.60;;
60318;SDS011;46163;52.306;5.634;2023-05-07T09:03:39;1.63;;;1.52;;
60318;SDS011;46163;52.306;5.634;2023-05-07T09:06:05;1.60;;;1.50;;
60318;SDS011;46163;52.306;5.634;2023-05-07T09:08:34;2.33;;;1.55;;
60318;SDS011;46163;52.306;5.634;2023-05-07T09:11:01;1.60;;;1.50;;
60318;SDS011;46163;52.306;5.634;2023-05-07T09:13:27;3.00;;;1.40;;
60318;SDS011;46163;52.306;5.634;2023-05-07T09:15:53;1.70;;;1.60;;
60318;SDS011;46163;52.306;5.634;2023-05-07T09:18:18;1.95;;;1.35;;
60318;SDS011;46163;52.306;5.634;2023-05-07T09:20:44;1.40;;;1.40;;
60318;SDS011;46163;52.306;5.634;2023-05-07T09:23:10;2.17;;;1.60;;
60318;SDS011;46163;52.306;5.634;2023-05-07T09:25:38;1.40;;;1.40;;
60318;SDS011;46163;52.306;5.634;2023-05-07T09:28:04;1.50;;;1.40;;
60318;SDS011;46163;52.306;5.634;2023-05-07T09:30:35;1.60;;;1.50;;
60318;SDS011;46163;52.306;5.634;2023-05-07T09:33:01;2.42;;;1.50;;
60318;SDS011;46163;52.306;5.634;2023-05-07T09:35:28;1.38;;;1.33;;
60318;SDS011;46163;52.306;5.634;2023-05-07T09:37:58;2.45;;;1.38;;
60318;SDS011;46163;52.306;5.634;2023-05-07T09:40:26;1.77;;;1.48;;
60318;SDS011;46163;52.306;5.634;2023-05-07T09:42:53;2.22;;;1.50;;
60318;SDS011;46163;52.306;5.634;2023-05-07T09:45:23;1.88;;;1.67;;
60318;SDS011;46163;52.306;5.634;2023-05-07T09:47:53;1.50;;;1.40;;
60318;SDS011;46163;52.306;5.634;2023-05-07T09:50:32;2.08;;;1.80;;
60318;SDS011;46163;52.306;5.634;2023-05-07T09:53:01;1.60;;;1.50;;
60318;SDS011;46163;52.306;5.634;2023-05-07T09:55:29;2.95;;;1.50;;
60318;SDS011;46163;52.306;5.634;2023-05-07T09:57:55;2.47;;;1.90;;
60318;SDS011;46163;52.306;5.634;2023-05-07T10:00:24;2.50;;;1.70;;
60318;SDS011;46163;52.306;5.634;2023-05-07T10:02:53;2.65;;;1.60;;
60318;SDS011;46163;52.306;5.634;2023-05-07T10:05:22;2.08;;;1.77;;
60318;SDS011;46163;52.306;5.634;2023-05-07T10:07:49;2.38;;;1.67;;
60318;SDS011;46163;52.306;5.634;2023-05-07T10:10:16;1.70;;;1.60;;
60318;SDS011;46163;52.306;5.634;2023-05-07T10:12:42;1.60;;;1.50;;
60318;SDS011;46163;52.306;5.634;2023-05-07T10:15:08;1.83;;;1.60;;
60318;SDS011;46163;52.306;5.634;2023-05-07T10:17:38;1.87;;;1.70;;
60318;SDS011;46163;52.306;5.634;2023-05-07T10:20:05;2.85;;;1.67;;
60318;SDS011;46163;52.306;5.634;2023-05-07T10:22:33;2.00;;;1.58;;
60318;SDS011;46163;52.306;5.634;2023-05-07T10:25:04;1.80;;;1.70;;
60318;SDS011;46163;52.306;5.634;2023-05-07T10:27:39;1.80;;;1.70;;
60318;SDS011;46163;52.306;5.634;2023-05-07T10:32:42;2.65;;;1.65;;
60318;SDS011;46163;52.306;5.634;2023-05-07T10:35:21;1.95;;;1.70;;
60318;SDS011;46163;52.306;5.634;2023-05-07T10:37:51;1.80;;;1.70;;
60318;SDS011;46163;52.306;5.634;2023-05-07T10:40:19;3.40;;;1.90;;
60318;SDS011;46163;52.306;5.634;2023-05-07T10:45:22;1.67;;;1.58;;
60318;SDS011;46163;52.306;5.634;2023-05-07T10:50:34;3.33;;;1.88;;
60318;SDS011;46163;52.306;5.634;2023-05-07T10:58:22;1.60;;;1.50;;
60318;SDS011;46163;52.306;5.634;2023-05-07T11:01:01;2.28;;;1.55;;
60318;SDS011;46163;52.306;5.634;2023-05-07T11:03:27;1.80;;;1.50;;
60318;SDS011;46163;52.306;5.634;2023-05-07T11:06:09;1.77;;;1.60;;
60318;SDS011;46163;52.306;5.634;2023-05-07T11:17:07;1.67;;;1.58;;
60318;SDS011;46163;52.306;5.634;2023-05-07T11:19:55;1.50;;;1.40;;
60318;SDS011;46163;52.306;5.634;2023-05-07T11:24:56;1.52;;;1.42;;
60318;SDS011;46163;52.306;5.634;2023-05-07T11:29:50;2.45;;;1.50;;
60318;SDS011;46163;52.306;5.634;2023-05-07T11:32:21;1.60;;;1.50;;
60318;SDS011;46163;52.306;5.634;2023-05-07T11:34:56;1.60;;;1.50;;
60318;SDS011;46163;52.306;5.634;2023-05-07T11:37:23;1.65;;;1.55;;
60318;SDS011;46163;52.306;5.634;2023-05-07T11:39:50;1.65;;;1.30;;
60318;SDS011;46163;52.306;5.634;2023-05-07T11:42:30;1.60;;;1.50;;
60318;SDS011;46163;52.306;5.634;2023-05-07T11:48:22;1.60;;;1.50;;
60318;SDS011;46163;52.306;5.634;2023-05-07T11:50:59;1.52;;;1.42;;
60318;SDS011;46163;52.306;5.634;2023-05-07T11:53:27;2.22;;;1.52;;
60318;SDS011;46163;52.306;5.634;2023-05-07T11:55:55;1.70;;;1.60;;
60318;SDS011;46163;52.306;5.634;2023-05-07T11:58:28;1.70;;;1.60;;
60318;SDS011;46163;52.306;5.634;2023-05-07T12:03:26;2.88;;;1.65;;
60318;SDS011;46163;52.306;5.634;2023-05-07T12:05:52;2.33;;;1.70;;
60318;SDS011;46163;52.306;5.634;2023-05-07T12:08:18;1.92;;;1.70;;
60318;SDS011;46163;52.306;5.634;2023-05-07T12:10:47;3.20;;;1.67;;
60318;SDS011;46163;52.306;5.634;2023-05-07T12:13:15;1.70;;;1.60;;
60318;SDS011;46163;52.306;5.634;2023-05-07T12:15:51;1.70;;;1.60;;
60318;SDS011;46163;52.306;5.634;2023-05-07T12:18:17;1.90;;;1.58;;
60318;SDS011;46163;52.306;5.634;2023-05-07T12:20:43;1.70;;;1.60;;
60318;SDS011;46163;52.306;5.634;2023-05-07T12:23:11;1.70;;;1.52;;
60318;SDS011;46163;52.306;5.634;2023-05-07T12:25:38;1.90;;;1.75;;
60318;SDS011;46163;52.306;5.634;2023-05-07T12:28:05;3.27;;;1.57;;
60318;SDS011;46163;52.306;5.634;2023-05-07T12:30:40;2.92;;;1.40;;
60318;SDS011;46163;52.306;5.634;2023-05-07T12:33:06;2.45;;;1.52;;
60318;SDS011;46163;52.306;5.634;2023-05-07T12:35:36;2.53;;;1.60;;
60318;SDS011;46163;52.306;5.634;2023-05-07T12:38:12;5.13;;;2.15;;
60318;SDS011;46163;52.306;5.634;2023-05-07T12:40:39;1.80;;;1.70;;
60318;SDS011;46163;52.306;5.634;2023-05-07T12:43:29;2.30;;;1.80;;
60318;SDS011;46163;52.306;5.634;2023-05-07T12:45:55;4.68;;;1.58;;
60318;SDS011;46163;52.306;5.634;2023-05-07T12:48:23;2.75;;;1.85;;
60318;SDS011;46163;52.306;5.634;2023-05-07T12:50:55;3.97;;;1.80;;
60318;SDS011;46163;52.306;5.634;2023-05-07T12:53:22;3.40;;;2.00;;
60318;SDS011;46163;52.306;5.634;2023-05-07T12:58:20;2.28;;;1.92;;
60318;SDS011;46163;52.306;5.634;2023-05-07T13:00:47;6.32;;;2.53;;
60318;SDS011;46163;52.306;5.634;2023-05-07T13:03:48;6.20;;;2.58;;
60318;SDS011;46163;52.306;5.634;2023-05-07T13:06:07;3.13;;;2.33;;
60318;SDS011;46163;52.306;5.634;2023-05-07T13:08:39;6.63;;;3.03;;
60318;SDS011;46163;52.306;5.634;2023-05-07T13:11:08;6.53;;;3.20;;
60318;SDS011;46163;52.306;5.634;2023-05-07T13:13:35;3.28;;;2.85;;
60318;SDS011;46163;52.306;5.634;2023-05-07T13:16:02;3.60;;;2.85;;
60318;SDS011;46163;52.306;5.634;2023-05-07T13:18:29;5.30;;;2.83;;
60318;SDS011;46163;52.306;5.634;2023-05-07T13:20:55;3.38;;;2.70;;
60318;SDS011;46163;52.306;5.634;2023-05-07T13:23:22;3.47;;;3.00;;
60318;SDS011;46163;52.306;5.634;2023-05-07T13:25:52;5.07;;;3.15;;
60318;SDS011;46163;52.306;5.634;2023-05-07T13:28:24;6.88;;;3.90;;
60318;SDS011;46163;52.306;5.634;2023-05-07T13:30:54;6.13;;;3.35;;
60318;SDS011;46163;52.306;5.634;2023-05-07T13:33:28;4.60;;;2.95;;
60318;SDS011;46163;52.306;5.634;2023-05-07T13:36:00;6.00;;;3.47;;
60318;SDS011;46163;52.306;5.634;2023-05-07T13:38:32;5.28;;;3.50;;
60318;SDS011;46163;52.306;5.634;2023-05-07T14:05:29;6.07;;;4.05;;
60318;SDS011;46163;52.306;5.634;2023-05-07T14:07:58;6.38;;;3.88;;
60318;SDS011;46163;52.306;5.634;2023-05-07T14:10:24;6.45;;;3.83;;
60318;SDS011;46163;52.306;5.634;2023-05-07T14:12:49;3.72;;;2.90;;
60318;SDS011;46163;52.306;5.634;2023-05-07T14:15:15;3.28;;;2.50;;
60318;SDS011;46163;52.306;5.634;2023-05-07T14:17:41;2.58;;;2.30;;
60318;SDS011;46163;52.306;5.634;2023-05-07T14:20:07;3.42;;;2.50;;
60318;SDS011;46163;52.306;5.634;2023-05-07T14:22:33;3.78;;;2.50;;
60318;SDS011;46163;52.306;5.634;2023-05-07T14:24:59;3.53;;;2.58;;
60318;SDS011;46163;52.306;5.634;2023-05-07T14:27:24;3.45;;;2.70;;
60318;SDS011;46163;52.306;5.634;2023-05-07T14:29:50;3.40;;;2.65;;
60318;SDS011;46163;52.306;5.634;2023-05-07T14:32:19;4.05;;;2.50;;
60318;SDS011;46163;52.306;5.634;2023-05-07T14:34:45;3.17;;;2.45;;
60318;SDS011;46163;52.306;5.634;2023-05-07T14:37:11;2.92;;;2.50;;
60318;SDS011;46163;52.306;5.634;2023-05-07T14:39:37;4.45;;;2.50;;
60318;SDS011;46163;52.306;5.634;2023-05-07T14:42:03;3.78;;;2.58;;
60318;SDS011;46163;52.306;5.634;2023-05-07T14:44:28;2.63;;;2.40;;
60318;SDS011;46163;52.306;5.634;2023-05-07T14:46:54;2.53;;;2.28;;
60318;SDS011;46163;52.306;5.634;2023-05-07T14:49:20;3.20;;;2.55;;
60318;SDS011;46163;52.306;5.634;2023-05-07T14:51:46;3.38;;;2.47;;
60318;SDS011;46163;52.306;5.634;2023-05-07T14:54:12;2.80;;;2.50;;
60318;SDS011;46163;52.306;5.634;2023-05-07T14:56:39;3.58;;;2.28;;
60318;SDS011;46163;52.306;5.634;2023-05-07T14:59:05;2.97;;;2.45;;
60318;SDS011;46163;52.306;5.634;2023-05-07T15:01:30;4.80;;;2.55;;
60318;SDS011;46163;52.306;5.634;2023-05-07T15:03:56;2.80;;;2.50;;
60318;SDS011;46163;52.306;5.634;2023-05-07T15:06:24;4.30;;;2.60;;
60318;SDS011;46163;52.306;5.634;2023-05-07T15:08:50;4.13;;;2.42;;
60318;SDS011;46163;52.306;5.634;2023-05-07T15:11:16;2.95;;;2.65;;
60318;SDS011;46163;52.306;5.634;2023-05-07T15:13:44;2.70;;;2.40;;
60318;SDS011;46163;52.306;5.634;2023-05-07T15:16:10;4.22;;;2.20;;
60318;SDS011;46163;52.306;5.634;2023-05-07T15:18:38;2.90;;;2.40;;
60318;SDS011;46163;52.306;5.634;2023-05-07T15:21:03;2.50;;;2.22;;
60318;SDS011;46163;52.306;5.634;2023-05-07T15:23:30;3.03;;;2.50;;
60318;SDS011;46163;52.306;5.634;2023-05-07T15:25:56;3.05;;;2.20;;
60318;SDS011;46163;52.306;5.634;2023-05-07T15:28:21;2.80;;;2.30;;
60318;SDS011;46163;52.306;5.634;2023-05-07T15:30:46;3.13;;;2.30;;
60318;SDS011;46163;52.306;5.634;2023-05-07T15:33:12;2.60;;;2.20;;
60318;SDS011;46163;52.306;5.634;2023-05-07T15:35:38;3.85;;;2.40;;
60318;SDS011;46163;52.306;5.634;2023-05-07T15:38:03;3.03;;;2.55;;
60318;SDS011;46163;52.306;5.634;2023-05-07T15:40:30;3.08;;;2.50;;
60318;SDS011;46163;52.306;5.634;2023-05-07T15:42:56;3.72;;;2.60;;
60318;SDS011;46163;52.306;5.634;2023-05-07T15:45:23;4.55;;;2.30;;